Main page
METAR-TAF:

METAR-TAF

Airports :

São José do Rio Preto Airport

São José do Rio Preto, São Paulo, Brazil

latitude: 20-48-58S, longitude: 049-24-17W, elevation: 543 m

Current weather observation

The report was made 1 hour and 15 minutes ago, at 22:00 UTC
Wind 11 kt from the West/Southwest
Temperature 18°C
Humidity 88%
Pressure 1018 hPa
Visibility 10 km or more
Few clouds at a height of 500 ft
Scattered clouds at a height of 800 ft
Few clouds at a height of 3000 ft, Towering cumulus.
Overcast at a height of 7000 ft
light rain

METAR: SBSR 202200Z 24011KT 9999 -RA FEW005 SCT008 FEW030TCU OVC070 18/16 Q1018

Time: 20:15 (23:15 UTC)


TAF: missing

Weather observations and forecasts of more than 4000 airports (METAR and TAF reports).

The available stations are represented by yellow and red dots on the map.

Hover mouse over dot to see the name of the station.

Then click to see weather observations and forecasts.

To change the map : click on the green buttons with a black cross to zoom in, on the green button with a dash to zoom out, or on the green arrows for adjacent maps.


METAR-TAF: